createdAt,value
2023-03-29T00:00:51.845Z,1.37
2023-03-29T00:03:21.875Z,1.41
2023-03-29T00:05:54.930Z,1.44
2023-03-29T00:08:28.500Z,1.50
2023-03-29T00:11:10.740Z,1.52
2023-03-29T00:13:41.008Z,1.53
2023-03-29T00:16:08.487Z,1.49
2023-03-29T00:18:35.645Z,1.57
2023-03-29T00:21:02.708Z,1.64
2023-03-29T00:23:36.684Z,1.62
2023-03-29T00:26:05.896Z,1.62
2023-03-29T00:28:34.504Z,1.68
2023-03-29T00:31:10.186Z,1.61
2023-03-29T00:33:37.956Z,1.55
2023-03-29T00:36:46.044Z,1.60
2023-03-29T00:39:11.178Z,1.47
2023-03-29T00:41:54.778Z,1.38
2023-03-29T00:44:59.454Z,1.52
2023-03-29T00:47:59.926Z,1.51
2023-03-29T00:50:36.492Z,1.49
2023-03-29T00:53:18.266Z,1.48
2023-03-29T00:56:02.183Z,1.29
2023-03-29T00:59:14.048Z,1.30
2023-03-29T01:01:51.289Z,1.34
2023-03-29T01:04:32.362Z,1.25
2023-03-29T01:07:23.212Z,1.19
2023-03-29T01:09:59.708Z,1.14
2023-03-29T01:12:33.255Z,1.13
2023-03-29T01:17:53.925Z,1.07
2023-03-29T01:21:05.183Z,1.13
2023-03-29T01:24:07.226Z,1.08
2023-03-29T01:26:44.870Z,1.11
2023-03-29T01:29:16.938Z,1.10
2023-03-29T01:31:53.108Z,1.17
2023-03-29T01:34:51.363Z,1.24
2023-03-29T01:37:43.472Z,1.18
2023-03-29T01:40:13.941Z,1.25
2023-03-29T01:43:10.442Z,1.26
2023-03-29T01:45:48.988Z,1.35
2023-03-29T01:48:25.076Z,1.14
2023-03-29T01:51:04.585Z,1.04
2023-03-29T01:53:41.343Z,1.09
2023-03-29T01:56:16.142Z,1.03
2023-03-29T01:58:46.831Z,1.02
2023-03-29T02:01:19.098Z,0.91
2023-03-29T02:03:51.238Z,0.86
2023-03-29T02:06:21.883Z,0.79
2023-03-29T02:09:38.217Z,0.78
2023-03-29T02:12:18.363Z,0.83
2023-03-29T02:15:34.535Z,0.93
2023-03-29T02:18:12.636Z,0.68
2023-03-29T02:21:21.800Z,0.81
2023-03-29T02:23:54.405Z,0.89
2023-03-29T02:27:04.293Z,0.83
2023-03-29T02:29:34.542Z,0.68
2023-03-29T02:32:16.068Z,0.61
2023-03-29T02:35:08.064Z,0.63
2023-03-29T02:38:04.035Z,0.64
2023-03-29T02:40:44.357Z,0.64
2023-03-29T02:43:14.438Z,0.52
2023-03-29T02:45:46.350Z,0.48
2023-03-29T02:48:21.622Z,0.43
2023-03-29T02:50:56.826Z,0.42
2023-03-29T02:53:36.465Z,0.41
2023-03-29T02:56:38.502Z,0.37
2023-03-29T02:59:02.244Z,0.32
2023-03-29T03:01:29.225Z,0.43
2023-03-29T03:07:21.621Z,0.53
2023-03-29T03:10:01.727Z,0.43
2023-03-29T03:19:11.445Z,0.53
2023-03-29T03:21:48.579Z,0.56
2023-03-29T03:27:50.952Z,0.63
2023-03-29T03:30:57.817Z,0.68
2023-03-29T03:40:19.608Z,0.81
2023-03-29T03:42:51.583Z,0.86
2023-03-29T03:45:49.302Z,0.84
2023-03-29T03:48:17.800Z,0.87
2023-03-29T03:51:32.742Z,0.90
2023-03-29T03:53:59.632Z,0.75
2023-03-29T03:56:32.832Z,0.74
2023-03-29T03:59:09.118Z,0.74
2023-03-29T04:05:13.284Z,0.58
2023-03-29T04:07:55.305Z,0.54
2023-03-29T04:14:07.000Z,0.47
2023-03-29T04:20:07.816Z,0.40
2023-03-29T04:22:34.504Z,0.42
2023-03-29T04:25:01.302Z,0.37
2023-03-29T04:27:45.006Z,0.33
2023-03-29T04:30:13.189Z,0.40
2023-03-29T04:38:52.420Z,0.40
2023-03-29T04:42:02.275Z,0.40
2023-03-29T04:45:19.528Z,0.46
2023-03-29T04:47:49.708Z,0.56
2023-03-29T04:53:02.399Z,0.71
2023-03-29T04:58:24.399Z,0.82
2023-03-29T05:00:56.603Z,0.91
2023-03-29T05:03:33.699Z,0.93
2023-03-29T05:06:14.812Z,0.99
2023-03-29T05:08:47.537Z,1.06
2023-03-29T05:11:15.692Z,1.12
2023-03-29T05:13:42.634Z,1.16
2023-03-29T05:16:11.326Z,1.16
2023-03-29T05:21:26.276Z,1.02
2023-03-29T05:26:34.103Z,0.84
2023-03-29T05:29:47.109Z,0.91
2023-03-29T05:32:15.086Z,1.01
2023-03-29T05:34:41.736Z,1.05
2023-03-29T05:37:19.867Z,1.07
2023-03-29T05:39:49.905Z,1.28
2023-03-29T05:42:40.895Z,1.29
2023-03-29T05:45:48.409Z,1.40
2023-03-29T05:48:14.957Z,1.80
2023-03-29T05:51:19.075Z,2.02
2023-03-29T05:53:45.895Z,2.03
2023-03-29T05:56:19.264Z,2.13
2023-03-29T06:01:43.814Z,2.47
2023-03-29T06:04:21.582Z,2.15
2023-03-29T06:07:08.320Z,2.07
2023-03-29T06:09:35.364Z,2.13
2023-03-29T06:12:05.374Z,1.96
2023-03-29T06:14:40.105Z,1.92
2023-03-29T06:20:26.959Z,1.84
2023-03-29T06:22:53.727Z,1.77
2023-03-29T06:25:20.683Z,1.91
2023-03-29T06:27:47.694Z,2.13
2023-03-29T06:30:15.718Z,2.41
2023-03-29T06:32:45.718Z,2.57
2023-03-29T06:35:13.536Z,2.53
2023-03-29T06:38:11.419Z,2.46
2023-03-29T06:40:53.873Z,2.34
2023-03-29T06:43:20.953Z,2.79
2023-03-29T06:45:47.768Z,3.01
2023-03-29T06:48:16.978Z,3.27
2023-03-29T06:50:43.879Z,3.68
2023-03-29T06:53:11.652Z,3.75
2023-03-29T06:55:38.704Z,3.60
2023-03-29T06:58:05.526Z,3.33
2023-03-29T07:00:44.259Z,3.34
2023-03-29T07:03:13.549Z,3.48
2023-03-29T07:05:52.014Z,3.59
2023-03-29T07:08:31.433Z,3.70
2023-03-29T07:10:59.706Z,3.59
2023-03-29T07:13:27.759Z,3.41
2023-03-29T07:15:54.734Z,3.23
2023-03-29T07:18:21.616Z,3.18
2023-03-29T07:21:26.035Z,3.12
2023-03-29T07:23:56.176Z,3.07
2023-03-29T07:26:28.777Z,3.07
2023-03-29T07:29:15.930Z,3.19
2023-03-29T07:31:46.381Z,3.14
2023-03-29T07:34:13.238Z,3.27
2023-03-29T07:36:40.555Z,3.26
2023-03-29T07:39:16.234Z,3.16
2023-03-29T07:41:43.104Z,3.28
2023-03-29T07:44:10.769Z,3.27
2023-03-29T07:46:37.972Z,3.16
2023-03-29T07:49:05.886Z,3.15
2023-03-29T07:51:34.999Z,3.24
2023-03-29T07:54:08.611Z,3.10
2023-03-29T07:56:38.788Z,3.11
2023-03-29T07:59:05.556Z,3.00
2023-03-29T08:01:50.860Z,3.00
2023-03-29T08:04:18.042Z,3.09
2023-03-29T08:06:59.849Z,3.26
2023-03-29T08:09:27.447Z,3.29
2023-03-29T08:11:54.187Z,3.43
2023-03-29T08:14:22.104Z,3.43
2023-03-29T08:16:48.802Z,3.49
2023-03-29T08:19:16.835Z,3.51
2023-03-29T08:21:43.356Z,3.66
2023-03-29T08:24:20.795Z,3.77
2023-03-29T08:26:48.900Z,3.77
2023-03-29T08:29:15.756Z,3.70
2023-03-29T08:31:50.024Z,3.80
2023-03-29T08:34:17.635Z,3.70
2023-03-29T08:36:48.762Z,3.57
2023-03-29T08:39:25.193Z,3.55
2023-03-29T08:42:09.046Z,3.54
2023-03-29T08:44:54.596Z,3.55
2023-03-29T08:47:40.762Z,3.60
2023-03-29T08:50:23.501Z,3.67
2023-03-29T08:53:13.362Z,3.77
2023-03-29T08:58:52.828Z,4.03
2023-03-29T09:01:54.606Z,4.10
2023-03-29T09:04:34.596Z,4.67
2023-03-29T09:07:38.188Z,4.67
2023-03-29T09:10:12.915Z,4.33
2023-03-29T09:13:30.508Z,4.22
2023-03-29T09:16:26.445Z,4.55
2023-03-29T09:19:23.892Z,5.32
2023-03-29T09:22:05.325Z,5.52
2023-03-29T09:24:46.809Z,5.92
2023-03-29T09:27:33.171Z,6.11
2023-03-29T09:30:37.087Z,5.94
2023-03-29T09:33:13.039Z,5.69
2023-03-29T09:36:24.319Z,5.85
2023-03-29T09:38:54.575Z,5.71
2023-03-29T09:42:30.966Z,5.55
2023-03-29T09:48:57.669Z,5.31
2023-03-29T09:58:21.889Z,4.44
2023-03-29T10:00:52.871Z,4.50
2023-03-29T10:04:05.165Z,4.58
2023-03-29T10:06:34.485Z,4.68
2023-03-29T10:09:02.301Z,4.75
2023-03-29T10:11:33.493Z,4.72
2023-03-29T10:17:46.559Z,4.56
2023-03-29T10:20:18.804Z,4.78
2023-03-29T10:27:23.637Z,4.95
2023-03-29T10:30:19.781Z,5.08
2023-03-29T10:32:47.345Z,5.24
2023-03-29T10:35:30.326Z,5.18
2023-03-29T10:41:44.831Z,5.06
2023-03-29T10:44:56.499Z,5.17
2023-03-29T10:47:53.828Z,5.30
2023-03-29T10:50:20.663Z,5.78
2023-03-29T10:53:29.145Z,6.08
2023-03-29T10:56:08.406Z,6.40
2023-03-29T10:59:50.610Z,6.33
2023-03-29T11:02:43.660Z,6.19
2023-03-29T11:05:31.904Z,6.19
2023-03-29T11:08:49.957Z,6.32
2023-03-29T11:11:28.454Z,6.29
2023-03-29T11:17:34.083Z,6.23
2023-03-29T11:20:12.654Z,5.99
2023-03-29T11:23:27.470Z,5.74
2023-03-29T11:26:11.906Z,5.67
2023-03-29T11:30:39.336Z,6.12
2023-03-29T11:32:45.161Z,6.48
2023-03-29T11:35:35.434Z,6.51
2023-03-29T11:45:43.548Z,6.43
2023-03-29T11:48:23.680Z,6.81
2023-03-29T11:52:20.237Z,6.99
2023-03-29T11:59:41.768Z,7.45
2023-03-29T12:06:04.825Z,7.18
2023-03-29T12:09:47.568Z,7.59
2023-03-29T12:13:28.871Z,7.37
2023-03-29T12:16:13.682Z,7.13
2023-03-29T12:19:00.735Z,6.92
2023-03-29T12:24:34.973Z,7.51
2023-03-29T12:27:39.960Z,7.66
2023-03-29T12:30:20.928Z,7.58
2023-03-29T12:32:53.707Z,7.76
2023-03-29T12:35:49.573Z,7.99
2023-03-29T12:38:22.145Z,8.03
2023-03-29T12:41:05.100Z,7.91
2023-03-29T12:43:46.115Z,7.36
2023-03-29T12:46:41.747Z,6.76
2023-03-29T12:49:26.107Z,6.99
2023-03-29T12:51:57.667Z,7.17
2023-03-29T12:54:52.323Z,7.48
2023-03-29T12:57:53.156Z,7.65
2023-03-29T13:03:40.372Z,7.13
2023-03-29T13:06:15.206Z,6.97
2023-03-29T13:08:53.603Z,7.01
2023-03-29T13:11:43.151Z,7.15
2023-03-29T13:14:32.220Z,7.51
2023-03-29T13:17:17.529Z,7.74
2023-03-29T13:19:52.472Z,7.94
2023-03-29T13:22:58.780Z,8.06
2023-03-29T13:25:50.070Z,8.12
2023-03-29T13:28:31.452Z,7.92
2023-03-29T13:38:01.415Z,7.63
2023-03-29T13:41:09.293Z,7.17
2023-03-29T13:43:51.901Z,7.43
2023-03-29T13:47:05.502Z,7.84
2023-03-29T13:50:02.432Z,8.17
2023-03-29T13:52:37.475Z,7.96
2023-03-29T13:55:24.268Z,7.86
2023-03-29T13:58:24.838Z,7.85
2023-03-29T14:01:07.308Z,8.05
2023-03-29T14:04:29.529Z,7.73
2023-03-29T14:09:44.229Z,7.96
2023-03-29T14:12:15.050Z,8.02
2023-03-29T14:14:58.345Z,7.92
2023-03-29T14:17:50.170Z,8.06
2023-03-29T14:20:27.726Z,8.25
2023-03-29T14:22:54.920Z,8.31
2023-03-29T14:25:23.336Z,8.30
2023-03-29T14:28:13.663Z,8.35
2023-03-29T14:31:25.946Z,8.25
2023-03-29T14:34:00.598Z,8.29
2023-03-29T14:36:35.498Z,8.37
2023-03-29T14:39:09.394Z,8.31
2023-03-29T14:41:38.328Z,8.00
2023-03-29T14:44:18.433Z,7.79
2023-03-29T14:49:51.641Z,7.43
2023-03-29T14:52:20.329Z,7.37
2023-03-29T14:54:57.981Z,7.24
2023-03-29T14:57:59.001Z,7.34
2023-03-29T15:00:48.730Z,7.36
2023-03-29T15:03:27.989Z,7.51
2023-03-29T15:06:10.456Z,7.60
2023-03-29T15:08:50.777Z,7.67
2023-03-29T15:11:27.915Z,7.89
2023-03-29T15:14:00.945Z,8.03
2023-03-29T15:16:31.553Z,7.95
2023-03-29T15:19:01.600Z,8.15
2023-03-29T15:21:39.295Z,8.02
2023-03-29T15:24:06.421Z,7.87
2023-03-29T15:26:41.441Z,8.24
2023-03-29T15:29:13.917Z,9.29
2023-03-29T15:31:42.334Z,10.40
2023-03-29T15:34:25.794Z,11.31
2023-03-29T15:36:54.243Z,11.69
2023-03-29T15:39:21.507Z,11.74
2023-03-29T15:41:55.916Z,11.62
2023-03-29T15:44:29.992Z,9.60
2023-03-29T15:46:57.940Z,8.47
2023-03-29T15:49:28.306Z,7.67
2023-03-29T15:51:55.174Z,7.19
2023-03-29T15:54:29.357Z,6.81
2023-03-29T15:57:13.943Z,6.57
2023-03-29T15:59:53.183Z,6.41
2023-03-29T16:02:46.154Z,6.16
2023-03-29T16:05:37.189Z,5.90
2023-03-29T16:08:16.888Z,5.88
2023-03-29T16:10:47.716Z,5.77
2023-03-29T16:13:14.914Z,5.75
2023-03-29T16:15:43.050Z,5.69
2023-03-29T16:18:10.353Z,5.60
2023-03-29T16:20:38.430Z,5.48
2023-03-29T16:23:09.567Z,5.41
2023-03-29T16:25:38.609Z,5.43
2023-03-29T16:28:07.869Z,5.38
2023-03-29T16:30:42.819Z,5.40
2023-03-29T16:33:11.332Z,5.38
2023-03-29T16:36:26.156Z,5.33
2023-03-29T16:39:47.242Z,5.22
2023-03-29T16:44:45.070Z,5.07
2023-03-29T16:47:12.363Z,5.03
2023-03-29T16:49:49.034Z,4.96
2023-03-29T16:52:24.581Z,4.97
2023-03-29T16:54:55.773Z,4.93
2023-03-29T16:57:30.269Z,4.90
2023-03-29T16:59:57.667Z,4.85
2023-03-29T17:02:24.866Z,4.87
2023-03-29T17:04:52.287Z,4.81
2023-03-29T17:07:20.495Z,4.80
2023-03-29T17:09:52.875Z,4.76
2023-03-29T17:12:23.426Z,4.69
2023-03-29T17:15:01.772Z,4.65
2023-03-29T17:17:31.949Z,4.63
2023-03-29T17:22:42.885Z,4.47
2023-03-29T17:25:19.145Z,4.45
2023-03-29T17:27:47.769Z,4.43
2023-03-29T17:30:19.567Z,4.42
2023-03-29T17:32:53.625Z,4.39
2023-03-29T17:35:27.929Z,4.29
2023-03-29T17:38:08.156Z,4.24
2023-03-29T17:40:38.510Z,4.17
2023-03-29T17:43:20.952Z,4.11
2023-03-29T17:45:56.905Z,4.13
2023-03-29T17:49:08.424Z,4.09
2023-03-29T17:52:00.855Z,4.03
2023-03-29T17:54:47.993Z,3.98
2023-03-29T17:57:24.882Z,3.86
2023-03-29T18:02:57.019Z,3.81
2023-03-29T18:05:55.732Z,3.82
2023-03-29T18:08:28.991Z,3.80
2023-03-29T18:11:36.792Z,3.78
2023-03-29T18:14:38.306Z,3.79
2023-03-29T18:17:07.330Z,3.72
2023-03-29T18:23:22.441Z,3.55
2023-03-29T18:26:34.805Z,3.37
2023-03-29T18:29:46.292Z,3.24
2023-03-29T18:35:57.100Z,2.98
2023-03-29T18:38:39.139Z,2.97
2023-03-29T18:41:31.721Z,2.88
2023-03-29T18:44:10.354Z,2.79
2023-03-29T18:46:44.404Z,2.75
2023-03-29T18:49:46.724Z,2.65
2023-03-29T18:52:17.674Z,2.54
2023-03-29T18:54:50.056Z,2.57
2023-03-29T18:57:20.727Z,2.50
2023-03-29T18:59:51.692Z,2.37
2023-03-29T19:02:19.917Z,2.37
2023-03-29T19:04:57.069Z,2.25
2023-03-29T19:10:15.196Z,1.91
2023-03-29T19:12:45.919Z,1.79
2023-03-29T19:15:14.296Z,1.73
2023-03-29T19:17:43.783Z,1.67
2023-03-29T19:20:12.744Z,1.64
2023-03-29T19:22:41.071Z,1.50
2023-03-29T19:25:18.724Z,1.53
2023-03-29T19:28:11.377Z,1.39
2023-03-29T19:30:40.257Z,1.33
2023-03-29T19:33:10.798Z,1.39
2023-03-29T19:35:45.630Z,1.27
2023-03-29T19:38:19.658Z,1.17
2023-03-29T19:40:56.311Z,1.13
2023-03-29T19:43:27.704Z,1.03
2023-03-29T19:45:54.822Z,0.97
2023-03-29T19:48:24.208Z,1.00
2023-03-29T19:51:13.155Z,0.88
2023-03-29T19:53:51.387Z,0.81
2023-03-29T19:56:37.558Z,0.71
2023-03-29T19:59:06.111Z,0.66
2023-03-29T20:04:33.763Z,0.56
2023-03-29T20:07:10.564Z,0.48
2023-03-29T20:10:08.018Z,0.51
2023-03-29T20:12:38.735Z,0.38
2023-03-29T20:15:22.726Z,0.42
2023-03-29T20:18:04.625Z,0.34
2023-03-29T20:20:37.156Z,0.21
2023-03-29T20:23:14.404Z,0.17
2023-03-29T20:25:42.855Z,0.18
2023-03-29T20:28:31.067Z,0.15
2023-03-29T20:31:27.373Z,0.01
2023-03-29T20:34:10.603Z,0.00
2023-03-29T20:36:51.133Z,-0.03
2023-03-29T20:39:27.895Z,0.02
2023-03-29T20:42:04.009Z,0.00
2023-03-29T20:44:54.997Z,0.00
2023-03-29T20:47:30.334Z,0.07
2023-03-29T20:50:12.386Z,-0.05
2023-03-29T20:52:39.804Z,-0.11
2023-03-29T20:55:43.652Z,-0.05
2023-03-29T20:58:17.713Z,-0.02
2023-03-29T21:00:52.333Z,-0.17
2023-03-29T21:03:25.742Z,-0.17
2023-03-29T21:13:54.771Z,-0.19
2023-03-29T21:22:09.840Z,-0.42
2023-03-29T21:24:44.162Z,-0.46
2023-03-29T21:34:08.712Z,-0.61
2023-03-29T21:36:48.917Z,-0.62
2023-03-29T21:39:21.980Z,-0.65
2023-03-29T21:41:59.947Z,-0.85
2023-03-29T21:44:47.844Z,-0.78
2023-03-29T21:47:18.415Z,-0.86
2023-03-29T21:49:51.404Z,-0.93
2023-03-29T21:52:35.036Z,-0.95
2023-03-29T21:55:07.781Z,-1.03
2023-03-29T21:57:48.550Z,-1.12
2023-03-29T22:00:18.078Z,-1.00
2023-03-29T22:02:49.386Z,-1.06
2023-03-29T22:05:26.205Z,-1.07
2023-03-29T22:08:00.873Z,-1.15
2023-03-29T22:11:23.209Z,-1.09
2023-03-29T22:13:56.537Z,-1.22
2023-03-29T22:16:53.142Z,-1.20
2023-03-29T22:23:14.451Z,-1.40
2023-03-29T22:25:52.797Z,-1.40
2023-03-29T22:28:32.108Z,-1.37
2023-03-29T22:31:10.938Z,-1.42
2023-03-29T22:33:45.872Z,-1.44
2023-03-29T22:36:38.496Z,-1.52
2023-03-29T22:39:18.633Z,-1.57
2023-03-29T22:41:53.510Z,-1.46
2023-03-29T22:45:09.792Z,-1.43
2023-03-29T22:47:37.840Z,-1.43
2023-03-29T22:50:16.264Z,-1.44
2023-03-29T22:53:14.809Z,-1.49
2023-03-29T22:59:12.278Z,-1.54
2023-03-29T23:02:12.834Z,-1.60
2023-03-29T23:04:57.223Z,-1.59
2023-03-29T23:07:41.547Z,-1.74
2023-03-29T23:10:37.234Z,-1.87
2023-03-29T23:16:13.670Z,-1.79
2023-03-29T23:18:44.675Z,-1.85
2023-03-29T23:21:32.369Z,-1.86
2023-03-29T23:24:00.982Z,-1.98
2023-03-29T23:26:55.452Z,-1.98
2023-03-29T23:29:26.745Z,-2.01
2023-03-29T23:32:04.179Z,-1.90
2023-03-29T23:34:35.146Z,-1.95
2023-03-29T23:37:02.914Z,-1.95
2023-03-29T23:42:36.005Z,-1.80
2023-03-29T23:48:10.202Z,-1.99
2023-03-29T23:50:37.887Z,-1.99
2023-03-29T23:53:05.242Z,-1.96
2023-03-29T23:55:45.094Z,-2.03
2023-03-29T23:58:12.843Z,-2.02
